Time;durP1;ratioP1;P1;durP2;ratioP2;P2;SDS_P1;SDS_P2;PMS_P1;PMS_P2;Temp;Humidity;BMP_temperature;BMP_pressure;BME280_temperature;BME280_humidity;BME280_pressure;Samples;Min_cycle;Max_cycle;Signal;HPM_P1;HPM_P2
2023/06/16 00:00:34;;;;;;;6.07;5.57;;;18.50;99.90;;;;;;5094934;28;20410;-50
2023/06/16 00:03:01;;;;;;;6.30;5.80;;;18.50;99.90;;;;;;5094396;28;20844;-53
2023/06/16 00:05:28;;;;;;;5.93;5.43;;;18.50;99.90;;;;;;5095509;28;20495;-53
2023/06/16 00:07:58;;;;;;;6.57;5.97;;;18.50;99.90;;;;;;5098671;28;20650;-52
2023/06/16 00:10:24;;;;;;;6.33;5.73;;;18.40;99.90;;;;;;5097865;28;20499;-49
2023/06/16 00:12:50;;;;;;;6.57;5.97;;;18.40;99.90;;;;;;5097570;28;20409;-49
2023/06/16 00:15:16;;;;;;;5.37;4.97;;;18.40;99.90;;;;;;5096643;28;20430;-53
2023/06/16 00:17:46;;;;;;;6.13;5.63;;;18.50;99.90;;;;;;5096565;28;20177;-50
2023/06/16 00:20:14;;;;;;;6.73;6.13;;;18.50;99.90;;;;;;5096286;28;20250;-50
2023/06/16 00:22:41;;;;;;;6.43;5.93;;;18.50;99.90;;;;;;5099062;28;20422;-50
2023/06/16 00:25:08;;;;;;;6.13;5.60;;;18.50;99.90;;;;;;5097691;28;20761;-49
2023/06/16 00:27:34;;;;;;;6.47;5.97;;;18.40;99.90;;;;;;5097786;28;20521;-50
2023/06/16 00:29:59;;;;;;;6.50;5.90;;;18.40;99.90;;;;;;5098167;28;20514;-49
2023/06/16 00:32:25;;;;;;;6.87;6.20;;;18.40;99.90;;;;;;5097102;28;20525;-50
2023/06/16 00:34:50;;;;;;;5.70;4.93;;;18.40;99.90;;;;;;5096259;28;20299;-49
2023/06/16 00:37:16;;;;;;;6.80;6.20;;;18.30;99.90;;;;;;5096761;28;20388;-52
2023/06/16 00:39:42;;;;;;;6.70;5.97;;;18.30;1.00;;;;;;5096775;28;20263;-49
2023/06/16 00:42:08;;;;;;;7.20;6.50;;;18.30;1.00;;;;;;5097204;28;20177;-51
2023/06/16 00:44:34;;;;;;;6.10;5.60;;;18.30;1.00;;;;;;5098736;28;20571;-51
2023/06/16 00:47:00;;;;;;;7.00;6.40;;;18.30;1.00;;;;;;5098558;28;20458;-51
2023/06/16 00:49:26;;;;;;;6.60;6.00;;;18.30;1.00;;;;;;5097812;28;20184;-54
2023/06/16 00:51:52;;;;;;;6.47;5.70;;;18.30;1.00;;;;;;5080798;28;20176;-51
2023/06/16 00:54:17;;;;;;;7.10;6.40;;;18.20;1.00;;;;;;5097035;28;20694;-49
2023/06/16 00:56:45;;;;;;;7.47;6.77;;;18.20;1.00;;;;;;5096877;28;20176;-50
2023/06/16 00:59:10;;;;;;;6.97;6.37;;;18.20;1.00;;;;;;5097261;28;20164;-49
2023/06/16 01:01:38;;;;;;;6.40;5.80;;;18.10;1.00;;;;;;5098651;28;20513;-52
2023/06/16 01:04:03;;;;;;;7.90;5.70;;;18.10;1.00;;;;;;5097771;28;20168;-50
2023/06/16 01:06:41;;;;;;;6.97;6.37;;;18.10;1.00;;;;;;5097273;28;20441;-51
2023/06/16 01:09:15;;;;;;;6.60;6.03;;;18.10;1.00;;;;;;5097217;28;20192;-52
2023/06/16 01:12:07;;;;;;;7.13;6.53;;;18.10;1.00;;;;;;5096046;28;20436;-51
2023/06/16 01:14:44;;;;;;;7.50;6.90;;;18.00;1.00;;;;;;5096573;28;20686;-49
2023/06/16 01:17:11;;;;;;;6.00;5.50;;;18.00;1.00;;;;;;5096488;28;20509;-49
2023/06/16 01:19:45;;;;;;;7.13;6.43;;;17.90;1.00;;;;;;5096548;28;20469;-53
2023/06/16 01:22:40;;;;;;;8.17;6.40;;;17.90;1.00;;;;;;5097011;28;20411;-50
2023/06/16 01:25:07;;;;;;;7.10;6.50;;;17.80;1.00;;;;;;5026558;28;20483;-49
2023/06/16 01:27:33;;;;;;;7.30;6.57;;;17.80;1.00;;;;;;5099003;28;20839;-51
2023/06/16 01:30:00;;;;;;;7.07;6.37;;;17.80;1.00;;;;;;5080887;28;20925;-52
2023/06/16 01:32:27;;;;;;;7.87;7.07;;;17.70;1.00;;;;;;5098890;28;20534;-54
2023/06/16 01:34:53;;;;;;;7.00;6.43;;;17.70;1.00;;;;;;5098461;28;20477;-51
2023/06/16 01:37:20;;;;;;;6.83;6.33;;;17.70;1.00;;;;;;5097786;28;20442;-51
2023/06/16 01:39:46;;;;;;;7.23;6.53;;;17.70;1.00;;;;;;5096836;28;20414;-52
2023/06/16 01:42:12;;;;;;;6.13;5.63;;;17.70;1.00;;;;;;5096831;28;20446;-51
2023/06/16 01:44:40;;;;;;;7.07;6.47;;;17.60;1.00;;;;;;5097072;28;20211;-49
2023/06/16 01:47:06;;;;;;;7.47;6.77;;;17.60;1.00;;;;;;5096985;28;20434;-51
2023/06/16 01:49:33;;;;;;;10.00;7.57;;;17.50;1.00;;;;;;5097736;28;20531;-50
2023/06/16 01:52:00;;;;;;;6.67;5.90;;;17.50;1.00;;;;;;5096490;28;20647;-53
2023/06/16 01:54:25;;;;;;;7.10;6.50;;;17.40;1.00;;;;;;5097432;28;20469;-49
2023/06/16 01:56:51;;;;;;;7.00;6.03;;;17.40;1.00;;;;;;5096473;28;20442;-53
2023/06/16 01:59:17;;;;;;;7.10;6.40;;;17.40;1.00;;;;;;5097558;28;20424;-50
2023/06/16 02:01:47;;;;;;;8.10;6.57;;;17.40;1.00;;;;;;5097447;28;20215;-51
2023/06/16 02:04:17;;;;;;;7.30;6.70;;;17.40;1.00;;;;;;5097427;28;20448;-49
2023/06/16 02:06:49;;;;;;;8.13;7.10;;;17.40;1.00;;;;;;5095555;28;20471;-50
2023/06/16 02:09:16;;;;;;;6.97;6.27;;;17.30;1.00;;;;;;5096116;28;20824;-53
2023/06/16 02:11:42;;;;;;;6.80;6.20;;;17.30;1.00;;;;;;5096898;28;20521;-49
2023/06/16 02:14:08;;;;;;;6.63;6.13;;;17.30;1.00;;;;;;5096107;28;20470;-50
2023/06/16 02:16:42;;;;;;;7.17;6.57;;;17.30;1.00;;;;;;5096095;28;20563;-48
2023/06/16 02:19:09;;;;;;;7.17;6.50;;;17.30;1.00;;;;;;5096190;28;20173;-51
2023/06/16 02:21:36;;;;;;;6.73;6.23;;;17.20;1.00;;;;;;5096307;28;20410;-52
2023/06/16 02:24:01;;;;;;;7.37;6.70;;;17.20;1.00;;;;;;5096498;28;20477;-50
2023/06/16 02:26:27;;;;;;;7.50;6.90;;;17.20;1.00;;;;;;5096274;28;20713;-52
2023/06/16 02:28:52;;;;;;;7.20;6.50;;;17.20;1.00;;;;;;5096139;28;20188;-52
2023/06/16 02:31:18;;;;;;;9.23;6.80;;;17.10;1.00;;;;;;5096734;28;20176;-52
2023/06/16 02:33:44;;;;;;;7.37;6.67;;;17.10;1.00;;;;;;5096509;28;20291;-50
2023/06/16 02:36:10;;;;;;;7.93;7.23;;;17.10;1.00;;;;;;5096817;28;20275;-51
2023/06/16 02:38:36;;;;;;;6.90;6.33;;;17.10;1.00;;;;;;5107495;28;20437;-52
2023/06/16 02:41:01;;;;;;;8.53;7.83;;;17.10;1.00;;;;;;5115826;28;20441;-49
2023/06/16 02:43:27;;;;;;;7.00;6.40;;;17.10;1.00;;;;;;5098351;28;20184;-51
2023/06/16 02:45:53;;;;;;;7.03;6.43;;;17.00;1.00;;;;;;5096725;28;20576;-49
2023/06/16 02:48:19;;;;;;;8.70;7.33;;;17.00;1.00;;;;;;5095249;28;20531;-49
2023/06/16 02:50:45;;;;;;;7.47;6.77;;;17.00;1.00;;;;;;5095228;28;20441;-50
2023/06/16 02:53:13;;;;;;;7.67;6.97;;;17.00;1.00;;;;;;5096441;28;20208;-51
2023/06/16 02:55:39;;;;;;;7.53;6.83;;;16.90;1.00;;;;;;5097820;28;20446;-49
2023/06/16 02:58:05;;;;;;;6.50;6.00;;;16.90;1.00;;;;;;5116077;28;20418;-50
2023/06/16 03:00:30;;;;;;;7.07;6.47;;;16.90;1.00;;;;;;5115680;28;20190;-49
2023/06/16 03:02:56;;;;;;;9.23;7.70;;;16.90;1.00;;;;;;5105055;28;20585;-51
2023/06/16 03:05:23;;;;;;;7.30;6.70;;;16.90;1.00;;;;;;5095370;28;20192;-53
2023/06/16 03:07:49;;;;;;;8.00;7.30;;;16.90;1.00;;;;;;5109346;28;20183;-51
2023/06/16 03:10:15;;;;;;;7.70;7.10;;;16.90;1.00;;;;;;5094719;28;20419;-51
2023/06/16 03:12:40;;;;;;;9.07;8.20;;;16.90;1.00;;;;;;5102250;28;20425;-50
2023/06/16 03:15:06;;;;;;;7.20;6.60;;;16.90;1.00;;;;;;5116145;28;20179;-52
2023/06/16 03:17:33;;;;;;;8.23;7.57;;;16.80;1.00;;;;;;5116895;28;20206;-49
2023/06/16 03:19:58;;;;;;;7.33;6.73;;;16.80;1.00;;;;;;5116736;28;20433;-50
2023/06/16 03:22:24;;;;;;;6.57;5.97;;;16.70;1.00;;;;;;5116661;28;20416;-49
2023/06/16 03:24:50;;;;;;;7.37;6.77;;;16.70;1.00;;;;;;5109110;28;20184;-55
2023/06/16 03:27:16;;;;;;;8.27;7.40;;;16.70;1.00;;;;;;5096282;28;20422;-50
2023/06/16 03:29:43;;;;;;;7.70;7.10;;;16.70;1.00;;;;;;5096189;28;20550;-50
2023/06/16 03:32:08;;;;;;;7.57;6.87;;;16.70;1.00;;;;;;5096180;28;20464;-49
2023/06/16 03:34:35;;;;;;;7.37;6.77;;;16.70;1.00;;;;;;5096252;28;20506;-51
2023/06/16 03:37:01;;;;;;;7.70;7.00;;;16.70;1.00;;;;;;5096359;28;20247;-50
2023/06/16 03:39:27;;;;;;;8.07;7.47;;;16.70;1.00;;;;;;5096197;28;20816;-49
2023/06/16 03:41:52;;;;;;;7.77;6.97;;;16.70;1.00;;;;;;5099365;28;20374;-49
2023/06/16 03:44:18;;;;;;;7.53;6.83;;;16.70;1.00;;;;;;5100552;28;20200;-49
2023/06/16 03:46:44;;;;;;;7.03;6.43;;;16.70;1.00;;;;;;5099953;28;20203;-52
2023/06/16 03:49:10;;;;;;;7.03;6.50;;;16.70;1.00;;;;;;5098874;28;20206;-50
2023/06/16 03:51:37;;;;;;;8.17;7.40;;;16.70;1.00;;;;;;5100265;28;20218;-55
2023/06/16 03:54:03;;;;;;;7.43;6.83;;;16.70;1.00;;;;;;5081839;28;20489;-49
2023/06/16 03:56:28;;;;;;;7.30;6.60;;;16.70;1.00;;;;;;5099179;28;20884;-51
2023/06/16 03:58:55;;;;;;;7.67;7.00;;;16.70;1.00;;;;;;5098665;28;20193;-50
2023/06/16 04:01:20;;;;;;;8.37;7.63;;;16.70;1.00;;;;;;5107854;28;20263;-51
2023/06/16 04:03:47;;;;;;;7.20;6.60;;;16.70;1.00;;;;;;5098875;28;20580;-48
2023/06/16 04:06:12;;;;;;;7.97;7.27;;;16.70;1.00;;;;;;5100073;28;20260;-51
2023/06/16 04:08:38;;;;;;;7.87;7.27;;;16.80;1.00;;;;;;5098753;28;20852;-51
2023/06/16 04:11:04;;;;;;;10.93;7.30;;;16.80;1.00;;;;;;5099130;28;20327;-50
2023/06/16 04:13:30;;;;;;;7.27;6.67;;;16.70;1.00;;;;;;5098850;28;20212;-51
2023/06/16 04:15:56;;;;;;;8.37;7.67;;;16.80;1.00;;;;;;5098941;28;20423;-51
2023/06/16 04:18:22;;;;;;;7.47;6.87;;;16.80;1.00;;;;;;5099755;28;20507;-53
2023/06/16 04:20:47;;;;;;;8.73;8.03;;;16.80;1.00;;;;;;5098446;28;20526;-49
2023/06/16 04:23:13;;;;;;;8.57;7.73;;;16.80;1.00;;;;;;5098986;28;20267;-52
2023/06/16 04:25:39;;;;;;;10.03;8.67;;;16.90;1.00;;;;;;5110097;28;20260;-54
2023/06/16 04:28:05;;;;;;;8.10;7.40;;;16.90;1.00;;;;;;5106424;28;20179;-51
2023/06/16 04:30:33;;;;;;;9.10;7.17;;;16.90;1.00;;;;;;5117013;28;20188;-53
2023/06/16 04:33:01;;;;;;;8.73;7.90;;;17.00;1.00;;;;;;5117589;28;20532;-53
2023/06/16 04:35:31;;;;;;;7.70;6.90;;;17.10;1.00;;;;;;5118838;28;20517;-51
2023/06/16 04:37:58;;;;;;;8.67;7.97;;;17.10;1.00;;;;;;5117671;28;20494;-50
2023/06/16 04:40:25;;;;;;;8.33;7.63;;;17.20;1.00;;;;;;5116291;28;20409;-49
2023/06/16 04:42:51;;;;;;;7.63;7.03;;;17.30;1.00;;;;;;5117271;28;20418;-50
2023/06/16 04:45:17;;;;;;;7.83;7.13;;;17.30;1.00;;;;;;5118048;28;20437;-50
2023/06/16 04:47:43;;;;;;;7.83;7.03;;;17.40;1.00;;;;;;5100361;28;20422;-51
2023/06/16 04:50:10;;;;;;;8.60;7.90;;;17.40;1.00;;;;;;5116607;28;20503;-51
2023/06/16 04:52:36;;;;;;;7.97;7.27;;;17.40;1.00;;;;;;5098652;28;20176;-50
2023/06/16 04:55:05;;;;;;;7.87;7.17;;;17.40;1.00;;;;;;5097260;28;20646;-52
2023/06/16 04:57:35;;;;;;;7.67;7.07;;;17.50;1.00;;;;;;5103920;28;20429;-51
2023/06/16 05:00:06;;;;;;;8.23;7.43;;;17.60;1.00;;;;;;5107713;28;20487;-49
2023/06/16 05:02:33;;;;;;;7.30;6.70;;;17.70;1.00;;;;;;5106930;28;20491;-51
2023/06/16 05:05:01;;;;;;;7.43;6.83;;;17.80;1.00;;;;;;5115384;28;20433;-50
2023/06/16 05:07:26;;;;;;;8.10;7.50;;;17.90;1.00;;;;;;5112767;28;20417;-53
2023/06/16 05:09:52;;;;;;;7.23;6.63;;;18.00;1.00;;;;;;5114889;28;21000;-51
2023/06/16 05:12:18;;;;;;;7.57;6.83;;;18.10;1.00;;;;;;5115824;28;20195;-51
2023/06/16 05:14:44;;;;;;;8.43;7.70;;;18.20;1.00;;;;;;5114352;28;20363;-50
2023/06/16 05:17:10;;;;;;;8.23;7.53;;;18.30;1.00;;;;;;5112112;28;20179;-51
2023/06/16 05:19:36;;;;;;;7.57;6.77;;;18.40;1.00;;;;;;5107632;28;20437;-48
2023/06/16 05:22:02;;;;;;;8.03;7.33;;;18.50;1.00;;;;;;5083657;28;20422;-51
2023/06/16 05:24:28;;;;;;;8.47;7.43;;;18.50;1.00;;;;;;5110985;28;20446;-50
2023/06/16 05:26:53;;;;;;;13.70;8.60;;;18.60;1.00;;;;;;5114523;28;20431;-51
2023/06/16 05:29:19;;;;;;;8.83;7.83;;;18.70;1.00;;;;;;5113124;28;20332;-51
2023/06/16 05:31:45;;;;;;;7.53;6.90;;;18.80;1.00;;;;;;5111818;28;20623;-52
2023/06/16 05:34:10;;;;;;;7.43;6.73;;;18.90;1.00;;;;;;5094655;28;20211;-51
2023/06/16 05:36:36;;;;;;;8.07;6.93;;;19.00;1.00;;;;;;5108006;28;20183;-52
2023/06/16 05:39:03;;;;;;;8.10;7.30;;;19.10;1.00;;;;;;5094156;28;20554;-52
2023/06/16 05:41:28;;;;;;;7.80;6.97;;;19.20;1.00;;;;;;5094908;28;20272;-52
2023/06/16 05:43:55;;;;;;;8.00;7.27;;;19.30;1.00;;;;;;5096233;28;20433;-52
2023/06/16 05:46:21;;;;;;;9.07;8.13;;;19.40;1.00;;;;;;5106240;28;20432;-53
2023/06/16 05:48:47;;;;;;;7.77;7.03;;;19.40;1.00;;;;;;5111643;28;20688;-50
2023/06/16 05:51:13;;;;;;;8.07;7.30;;;19.10;1.00;;;;;;5093676;28;20469;-51
2023/06/16 05:53:38;;;;;;;9.00;8.10;;;19.30;1.00;;;;;;5093304;28;20485;-52
2023/06/16 05:56:04;;;;;;;9.20;8.17;;;19.40;1.00;;;;;;5075089;28;20682;-53
2023/06/16 05:58:33;;;;;;;7.80;7.20;;;19.60;1.00;;;;;;5092529;28;20682;-49
2023/06/16 06:00:59;;;;;;;9.37;8.47;;;19.70;1.00;;;;;;5092381;28;20552;-53
2023/06/16 06:03:25;;;;;;;7.20;6.53;;;19.80;1.00;;;;;;5091488;28;20513;-56
2023/06/16 06:05:50;;;;;;;8.37;7.67;;;19.90;1.00;;;;;;5095124;28;20893;-55
2023/06/16 06:08:16;;;;;;;8.00;7.27;;;19.90;1.00;;;;;;5092756;28;20633;-56
2023/06/16 06:10:42;;;;;;;6.53;6.03;;;20.00;1.00;;;;;;5110413;28;20607;-55
2023/06/16 06:13:08;;;;;;;7.60;6.80;;;20.10;1.00;;;;;;5114553;28;20461;-53
2023/06/16 06:15:33;;;;;;;6.73;6.13;;;20.20;1.00;;;;;;5114393;28;20179;-56
2023/06/16 06:17:59;;;;;;;7.23;6.63;;;20.30;1.00;;;;;;5113946;28;20276;-58
2023/06/16 06:20:25;;;;;;;8.20;7.40;;;20.50;1.00;;;;;;5110463;28;20308;-56
2023/06/16 06:22:50;;;;;;;7.43;6.60;;;20.60;1.00;;;;;;5114447;28;20175;-54
2023/06/16 06:25:16;;;;;;;7.80;6.80;;;20.70;1.00;;;;;;5093658;28;20258;-55
2023/06/16 06:27:41;;;;;;;7.70;7.00;;;20.80;1.00;;;;;;5091730;28;20203;-57
2023/06/16 06:30:07;;;;;;;7.80;7.13;;;20.90;1.00;;;;;;5090994;28;20172;-55
2023/06/16 06:32:33;;;;;;;7.93;6.73;;;21.10;1.00;;;;;;5092288;28;20420;-56
2023/06/16 06:34:59;;;;;;;6.63;6.13;;;21.10;1.00;;;;;;5090281;28;20461;-55
2023/06/16 06:37:30;;;;;;;9.10;7.50;;;21.20;1.00;;;;;;5091372;28;20165;-55
2023/06/16 06:39:56;;;;;;;7.80;7.00;;;21.40;1.00;;;;;;5092290;28;20556;-56
2023/06/16 06:42:22;;;;;;;9.13;7.40;;;21.40;1.00;;;;;;5092891;28;20552;-56
2023/06/16 06:44:48;;;;;;;8.97;7.10;;;21.50;1.00;;;;;;5094182;28;20478;-57
2023/06/16 06:47:14;;;;;;;7.80;7.00;;;21.80;1.00;;;;;;5093634;28;20426;-57
2023/06/16 06:49:41;;;;;;;8.17;6.93;;;21.90;1.00;;;;;;5076763;28;20525;-54
2023/06/16 06:52:07;;;;;;;9.83;7.10;;;22.00;1.00;;;;;;5095226;28;20411;-55
2023/06/16 06:54:33;;;;;;;6.80;6.00;;;22.20;1.00;;;;;;5096406;28;20829;-56
2023/06/16 06:56:58;;;;;;;7.87;7.17;;;22.40;1.00;;;;;;5093791;28;20494;-55
2023/06/16 06:59:24;;;;;;;9.50;6.93;;;22.60;1.00;;;;;;5095539;28;20184;-54
2023/06/16 07:01:50;;;;;;;7.20;6.50;;;22.70;1.00;;;;;;5097997;28;20427;-55
2023/06/16 07:04:16;;;;;;;6.97;6.27;;;22.80;1.00;;;;;;5106733;28;21088;-55
2023/06/16 07:06:41;;;;;;;8.43;6.87;;;23.00;1.00;;;;;;5105043;28;20639;-53
2023/06/16 07:09:07;;;;;;;7.20;6.57;;;23.10;1.00;;;;;;5103430;28;20275;-56
2023/06/16 07:11:33;;;;;;;7.30;6.60;;;23.10;1.00;;;;;;5097210;28;20187;-55
2023/06/16 07:14:01;;;;;;;7.50;6.80;;;23.30;1.00;;;;;;5115294;28;20473;-56
2023/06/16 07:16:27;;;;;;;8.73;6.17;;;23.50;1.00;;;;;;5113454;28;20226;-56
2023/06/16 07:18:53;;;;;;;7.50;6.60;;;23.60;1.00;;;;;;5107957;28;20507;-56
2023/06/16 07:21:19;;;;;;;9.07;7.40;;;23.60;1.00;;;;;;5093831;28;20835;-56
2023/06/16 07:23:44;;;;;;;9.03;8.20;;;23.40;1.00;;;;;;5092866;28;20250;-53
2023/06/16 07:26:10;;;;;;;10.17;7.40;;;23.50;1.00;;;;;;5091963;28;20223;-57
2023/06/16 07:28:36;;;;;;;8.23;7.40;;;23.50;1.00;;;;;;5090574;28;20242;-55
2023/06/16 07:31:02;;;;;;;8.00;7.00;;;23.60;1.00;;;;;;5092743;28;20179;-54
2023/06/16 07:33:28;;;;;;;8.57;7.77;;;23.80;1.00;;;;;;5092305;28;20776;-56
2023/06/16 07:35:53;;;;;;;7.07;6.47;;;23.80;1.00;;;;;;5091560;28;20194;-53
2023/06/16 07:38:19;;;;;;;7.03;6.40;;;23.50;1.00;;;;;;5092199;28;20617;-55
2023/06/16 07:40:45;;;;;;;6.97;6.37;;;23.10;1.00;;;;;;5092732;28;20253;-53
2023/06/16 07:43:11;;;;;;;8.07;5.90;;;23.30;1.00;;;;;;5093210;28;20431;-54
2023/06/16 07:45:36;;;;;;;7.10;6.40;;;23.40;1.00;;;;;;5091124;28;20847;-56
2023/06/16 07:48:03;;;;;;;7.10;6.40;;;23.50;1.00;;;;;;5092349;28;20184;-55
2023/06/16 07:50:29;;;;;;;6.77;6.17;;;23.90;1.00;;;;;;5091589;28;20191;-56
2023/06/16 07:52:54;;;;;;;6.50;5.80;;;24.40;1.00;;;;;;5090594;28;20426;-55
2023/06/16 07:55:20;;;;;;;8.27;6.03;;;24.50;1.00;;;;;;5091411;28;20281;-51
2023/06/16 07:57:49;;;;;;;7.10;6.50;;;24.80;1.00;;;;;;5093600;28;20279;-56
2023/06/16 08:00:18;;;;;;;9.30;5.63;;;25.20;1.00;;;;;;5094505;28;20180;-51
2023/06/16 08:02:44;;;;;;;11.90;5.53;;;25.50;1.00;;;;;;5091862;28;20744;-56
2023/06/16 08:05:11;;;;;;;6.47;5.87;;;25.80;1.00;;;;;;5093105;28;20450;-54
2023/06/16 08:07:37;;;;;;;7.57;6.03;;;26.00;1.00;;;;;;5091885;28;20423;-55
2023/06/16 08:10:04;;;;;;;5.47;5.03;;;26.30;1.00;;;;;;5090516;28;20411;-53
2023/06/16 08:12:31;;;;;;;5.40;4.40;;;26.50;1.00;;;;;;5107454;28;20497;-52
2023/06/16 08:14:56;;;;;;;5.70;5.20;;;26.40;1.00;;;;;;5111965;28;20533;-55
2023/06/16 08:17:22;;;;;;;7.50;5.63;;;26.70;1.00;;;;;;5113020;28;20853;-56
2023/06/16 08:19:48;;;;;;;5.97;5.43;;;26.50;1.00;;;;;;5112995;28;20176;-43
2023/06/16 08:22:14;;;;;;;8.30;5.13;;;26.60;1.00;;;;;;5111452;28;20713;-43
2023/06/16 08:24:40;;;;;;;5.33;4.83;;;26.80;1.00;;;;;;5112744;28;20510;-43
2023/06/16 08:27:07;;;;;;;6.67;6.00;;;27.20;1.00;;;;;;5115419;28;20420;-45
2023/06/16 08:29:33;;;;;;;8.80;5.60;;;27.40;1.00;;;;;;5098048;28;20175;-46
2023/06/16 08:31:59;;;;;;;6.13;5.57;;;27.70;1.00;;;;;;5116500;28;20505;-44
2023/06/16 08:34:24;;;;;;;6.10;5.50;;;27.90;1.00;;;;;;5116459;28;20422;-43
2023/06/16 08:36:50;;;;;;;6.13;5.63;;;28.00;1.00;;;;;;5117588;28;20231;-43
2023/06/16 08:39:16;;;;;;;5.87;5.37;;;28.30;1.00;;;;;;5115761;28;20669;-44
2023/06/16 08:41:41;;;;;;;5.97;5.43;;;28.60;1.00;;;;;;5118011;28;20748;-44
2023/06/16 08:44:09;;;;;;;13.20;7.03;;;28.80;1.00;;;;;;5100701;28;20187;-46
2023/06/16 08:46:36;;;;;;;8.17;6.00;;;28.90;1.00;;;;;;5116840;28;20194;-43
2023/06/16 08:49:03;;;;;;;6.50;5.90;;;29.10;1.00;;;;;;5117545;28;20406;-46
2023/06/16 08:51:33;;;;;;;7.00;5.93;;;28.90;1.00;;;;;;5117196;28;20520;-44
2023/06/16 08:54:01;;;;;;;6.17;5.67;;;28.50;1.00;;;;;;5096906;28;20742;-46
2023/06/16 08:56:34;;;;;;;6.17;5.63;;;28.20;99.90;;;;;;5094826;28;20481;-44
2023/06/16 08:59:06;;;;;;;6.77;6.07;;;27.90;99.90;;;;;;5095628;28;20404;-44
2023/06/16 09:01:39;;;;;;;6.00;5.43;;;28.00;99.90;;;;;;5115879;28;20569;-45
2023/06/16 09:04:08;;;;;;;5.80;5.30;;;28.10;99.90;;;;;;5099089;28;20413;-43
2023/06/16 09:06:35;;;;;;;5.90;5.30;;;28.30;99.90;;;;;;5114803;28;20496;-43
2023/06/16 09:09:01;;;;;;;6.93;5.87;;;28.20;99.90;;;;;;5115304;28;20495;-44
2023/06/16 09:11:26;;;;;;;6.37;5.77;;;28.20;99.90;;;;;;5116394;28;20422;-44
2023/06/16 09:13:52;;;;;;;6.70;5.90;;;28.10;99.90;;;;;;5113935;28;20308;-44
2023/06/16 09:16:21;;;;;;;7.13;5.20;;;28.20;99.90;;;;;;5115380;28;20237;-44
2023/06/16 09:18:48;;;;;;;7.87;5.93;;;28.40;99.90;;;;;;5116541;28;20416;-43
2023/06/16 09:21:22;;;;;;;5.83;5.13;;;28.40;99.90;;;;;;5113092;28;20413;-45
2023/06/16 09:23:57;;;;;;;6.30;5.70;;;28.40;99.90;;;;;;5112286;28;20447;-44
2023/06/16 09:26:30;;;;;;;5.70;5.20;;;28.60;99.90;;;;;;5113232;28;20432;-44
2023/06/16 09:28:56;;;;;;;6.47;5.43;;;28.90;99.90;;;;;;5113125;28;20425;-45
2023/06/16 09:31:27;;;;;;;8.77;6.20;;;29.20;99.90;;;;;;5111035;28;20924;-44
2023/06/16 09:34:03;;;;;;;6.30;5.70;;;29.00;99.90;;;;;;5112463;28;21021;-43
2023/06/16 09:36:29;;;;;;;5.70;5.20;;;29.10;99.90;;;;;;5112567;28;20416;-43
2023/06/16 09:38:54;;;;;;;5.87;5.20;;;29.30;99.90;;;;;;5115270;28;20436;-45
2023/06/16 09:41:20;;;;;;;7.97;6.10;;;29.60;99.90;;;;;;5115390;28;20184;-46
2023/06/16 09:43:46;;;;;;;5.93;5.33;;;29.30;99.90;;;;;;5113899;28;20324;-43
2023/06/16 09:46:12;;;;;;;5.80;5.30;;;28.80;99.90;;;;;;5114340;28;20168;-44
2023/06/16 09:48:50;;;;;;;6.03;5.43;;;28.10;99.90;;;;;;5095139;28;20176;-45
2023/06/16 09:51:23;;;;;;;6.93;6.27;;;27.30;99.90;;;;;;5113531;28;20895;-45
2023/06/16 09:53:49;;;;;;;6.20;5.70;;;26.80;99.90;;;;;;5114969;28;20473;-44
2023/06/16 09:56:19;;;;;;;9.27;5.80;;;27.00;99.90;;;;;;5115502;28;20472;-48
2023/06/16 09:58:45;;;;;;;7.10;6.13;;;27.60;99.90;;;;;;5115989;28;20908;-45
2023/06/16 10:01:13;;;;;;;7.37;5.17;;;28.40;99.90;;;;;;5115108;28;20410;-45
2023/06/16 10:03:43;;;;;;;7.13;5.77;;;28.70;99.90;;;;;;5113415;28;20410;-45
2023/06/16 10:06:20;;;;;;;6.00;5.40;;;28.70;99.90;;;;;;5112492;28;20815;-43
2023/06/16 10:08:47;;;;;;;6.50;5.90;;;29.10;99.90;;;;;;5114131;28;20421;-46
2023/06/16 10:11:15;;;;;;;7.73;5.53;;;29.40;99.90;;;;;;5113242;28;20401;-44
2023/06/16 10:13:47;;;;;;;6.20;5.60;;;29.80;99.90;;;;;;5114336;28;20470;-44
2023/06/16 10:16:14;;;;;;;7.27;5.53;;;30.30;99.90;;;;;;5096278;28;20492;-44
2023/06/16 10:18:41;;;;;;;6.10;5.50;;;30.70;99.90;;;;;;5113141;28;20732;-45
2023/06/16 10:21:10;;;;;;;6.40;5.73;;;31.30;99.90;;;;;;5093894;28;20809;-44
2023/06/16 10:23:36;;;;;;;8.53;6.33;;;31.10;99.90;;;;;;5095405;28;20473;-45
2023/06/16 10:26:03;;;;;;;6.03;5.53;;;30.90;99.90;;;;;;5111338;28;20400;-45
2023/06/16 10:28:30;;;;;;;5.90;5.30;;;30.90;99.90;;;;;;5074601;28;20441;-44
2023/06/16 10:30:56;;;;;;;6.43;5.30;;;30.90;99.90;;;;;;5109100;28;20399;-45
2023/06/16 10:33:28;;;;;;;5.50;5.00;;;31.00;99.90;;;;;;5089952;28;20526;-44
2023/06/16 10:35:55;;;;;;;6.20;5.60;;;31.40;99.90;;;;;;5108911;28;20425;-44
2023/06/16 10:38:34;;;;;;;6.67;5.93;;;31.40;99.90;;;;;;5108806;28;20455;-49
2023/06/16 10:41:02;;;;;;;5.67;5.17;;;31.60;99.90;;;;;;5110024;28;20776;-45
2023/06/16 10:43:27;;;;;;;8.83;5.83;;;31.90;99.90;;;;;;5110746;28;20709;-44
2023/06/16 10:46:15;;;;;;;5.20;4.80;;;32.20;99.90;;;;;;5113390;28;20420;-44
2023/06/16 10:49:07;;;;;;;5.70;5.20;;;31.70;99.90;;;;;;5113313;28;20248;-43
2023/06/16 10:51:43;;;;;;;6.13;5.63;;;30.30;99.90;;;;;;5112031;28;20445;-43
2023/06/16 10:54:09;;;;;;;6.40;5.73;;;29.30;99.90;;;;;;5112271;28;20454;-44
2023/06/16 10:57:03;;;;;;;6.00;5.50;;;29.10;99.90;;;;;;5113471;28;20507;-44
2023/06/16 10:59:29;;;;;;;6.10;5.50;;;29.40;99.90;;;;;;5110993;28;20677;-44
2023/06/16 11:01:57;;;;;;;5.83;5.33;;;30.10;99.90;;;;;;5094531;28;20421;-43
2023/06/16 11:04:24;;;;;;;10.20;6.50;;;30.80;99.90;;;;;;5112955;28;20453;-43
2023/06/16 11:07:04;;;;;;;6.97;6.33;;;30.60;99.90;;;;;;5110498;28;20773;-44
2023/06/16 11:09:31;;;;;;;6.60;5.63;;;30.80;99.90;;;;;;5110792;28;20443;-45
2023/06/16 11:11:58;;;;;;;6.53;5.93;;;31.20;99.90;;;;;;5113134;28;20425;-45
2023/06/16 11:14:25;;;;;;;7.00;6.40;;;31.60;99.90;;;;;;5092984;28;20452;-44
2023/06/16 11:16:51;;;;;;;7.43;6.73;;;32.10;99.90;;;;;;5109621;28;20396;-45
2023/06/16 11:19:20;;;;;;;11.50;7.37;;;32.30;99.90;;;;;;5109928;28;20842;-44
2023/06/16 11:21:46;;;;;;;5.90;5.50;;;32.60;99.90;;;;;;5093139;28;20388;-45
2023/06/16 11:24:13;;;;;;;5.93;5.33;;;32.80;99.90;;;;;;5110298;28;20490;-44
2023/06/16 11:26:39;;;;;;;9.27;6.10;;;32.90;99.90;;;;;;5109955;28;20441;-45
2023/06/16 11:29:06;;;;;;;7.20;6.47;;;33.10;99.90;;;;;;5110706;28;20500;-44
2023/06/16 11:31:35;;;;;;;6.40;5.90;;;33.10;99.90;;;;;;5107560;28;20862;-44
2023/06/16 11:34:03;;;;;;;6.23;5.63;;;33.00;99.90;;;;;;5109592;28;20424;-44
2023/06/16 11:36:29;;;;;;;6.47;5.90;;;33.00;99.90;;;;;;5111384;28;20485;-43
2023/06/16 11:38:55;;;;;;;8.40;6.10;;;33.20;99.90;;;;;;5094010;28;20468;-44
2023/06/16 11:41:29;;;;;;;6.80;6.20;;;33.20;99.90;;;;;;5113107;28;20475;-43
2023/06/16 11:43:55;;;;;;;5.67;5.13;;;33.30;99.90;;;;;;5095735;28;20187;-45
2023/06/16 11:46:30;;;;;;;6.07;5.50;;;33.50;99.90;;;;;;5094145;28;20478;-45
2023/06/16 11:48:56;;;;;;;7.83;6.27;;;33.70;99.90;;;;;;5096099;28;20690;-45
2023/06/16 11:51:23;;;;;;;6.60;6.00;;;33.90;99.90;;;;;;5076528;28;20486;-45
2023/06/16 11:53:50;;;;;;;6.27;5.77;;;33.90;99.90;;;;;;5099853;28;20207;-44
2023/06/16 11:56:17;;;;;;;7.00;6.40;;;34.10;99.90;;;;;;5110482;28;20526;-44
2023/06/16 11:58:44;;;;;;;6.53;6.03;;;34.40;99.90;;;;;;5100719;28;20474;-44
2023/06/16 12:01:14;;;;;;;7.63;5.90;;;34.40;99.90;;;;;;5089146;28;20381;-43
2023/06/16 12:03:40;;;;;;;6.43;5.93;;;34.20;99.90;;;;;;5084487;28;20421;-43
2023/06/16 12:06:06;;;;;;;6.00;5.50;;;33.50;99.90;;;;;;5098339;28;20709;-44
2023/06/16 12:08:42;;;;;;;5.87;5.47;;;33.70;99.90;;;;;;5094679;28;20468;-44
2023/06/16 12:11:09;;;;;;;6.23;5.70;;;33.90;99.90;;;;;;5078174;28;20532;-45
2023/06/16 12:13:36;;;;;;;6.60;5.80;;;33.70;99.90;;;;;;5091790;28;20443;-43
2023/06/16 12:16:06;;;;;;;7.23;6.63;;;33.40;99.90;;;;;;5102364;28;20440;-43
2023/06/16 12:18:32;;;;;;;6.70;6.10;;;33.30;99.90;;;;;;5101008;28;20814;-43
2023/06/16 12:21:13;;;;;;;5.87;5.37;;;33.30;99.90;;;;;;5114186;28;20440;-44
2023/06/16 12:23:39;;;;;;;7.30;6.40;;;33.40;99.90;;;;;;5095701;28;20457;-42
2023/06/16 12:26:05;;;;;;;7.00;6.50;;;33.40;99.90;;;;;;5094460;28;20465;-43
2023/06/16 12:28:30;;;;;;;6.53;5.90;;;33.10;99.90;;;;;;5093133;28;20590;-45
2023/06/16 12:31:00;;;;;;;6.83;6.13;;;33.40;99.90;;;;;;5094305;28;20180;-45
2023/06/16 12:33:27;;;;;;;6.50;5.97;;;33.40;99.90;;;;;;5100966;28;20211;-45
2023/06/16 12:35:54;;;;;;;7.47;6.77;;;33.60;99.90;;;;;;5117880;28;20456;-42
2023/06/16 12:38:32;;;;;;;6.83;6.23;;;33.60;99.90;;;;;;5099058;28;20475;-44
2023/06/16 12:40:57;;;;;;;7.60;6.83;;;33.20;99.90;;;;;;5114990;28;20725;-42
2023/06/16 12:43:24;;;;;;;7.17;6.57;;;33.00;99.90;;;;;;5115769;28;20449;-44
2023/06/16 12:45:52;;;;;;;7.70;6.87;;;33.10;99.90;;;;;;5116671;28;20183;-44
2023/06/16 12:48:18;;;;;;;7.47;6.90;;;31.90;99.90;;;;;;5116085;28;20436;-43
2023/06/16 12:50:44;;;;;;;7.57;6.80;;;30.50;99.90;;;;;;5117936;28;20407;-44
2023/06/16 12:53:09;;;;;;;8.70;6.60;;;30.60;99.90;;;;;;5113257;28;20568;-44